Keota, Iowa
Current Conditions -  °F | °C
As of 7:55 AM on Monday 24 Nov 2014 (Local Time) from KAWG Reporting Station
Light Snow Light Snow  
Wind Chill: 16°   Ceiling: 1900
Heat Index: 30°   Visibility: 3mi
Dew Point: 30°   Wind: 25mph
Humidity: 100%   Direction: 290°WNW
Pressure: 29.41"   Gusts: 35mph
Location:  41.36°N, 91.95°W
Report Text: KAWG 241355Z AUTO 29022G30KT 3SM -SN SCT012 BKN019 BKN032 M01/M01 A2941 RMK AO2
Loading
Personal Weather Stations






























Interactive Weather Map New forecast layout! Learn more

10-Day Weather Forecast

Advertisements
Track Severe Weather on mobile